Tiempo atmosférico en la estación meteorológica de Alajar, Huelva (572 m.)



Fecha
DESCASC
Temp. máxima en grados centígrados (hora)
DESCASC
Temp. mínima en grados centígrados (hora)
DESCASC
Temp. media en grados centígrados
DESCASC
Racha de viento máxima en m/sg (hora)
DESCASC
Velocidad máxima media en intervalos de 10 minutos(hora)
DESCASC
Precipitaciones diarias en mm
DESCASC
Precipitaciones de 00:00 a 06:00 en mm
DESCASC
Precipitaciones de 06:00 a 12:00 en mm
DESCASC
Precipitaciones de 12:00 a 18:00 en mm
DESCASC
Precipitaciones de 18:00 a 24:00 en mm
DESCASC
14-12-2019 12.5 (14:00) 9 (04:20) 10.8 6.67 (11:10) 3.61 (14:40) 0 0 0 0 0
13-12-2019 12.7 (14:50) 10.5 (09:10) 11.6 15.83 (09:50) 7.78 (09:50) 5.2 4.2 0.8 0.2 0
12-12-2019 11.8 (14:00) 5.1 (02:50) 8.5 14.17 (05:00) 9.17 (08:20) 1.8 0 0 0 1.8
11-12-2019 14.3 (02:20) 6.5 (00:00) 10.4 15 (15:20) 8.61 (15:20) 0 0 0 0 0
10-12-2019 18.6 (14:50) 7.2 (00:00) 12.9 11.94 (02:40) 8.06 (02:40) 0 0 0 0 0
09-12-2019 17.9 (15:30) 10.7 (00:00) 14.3 11.39 (23:10) 6.94 (22:50) 0 0 0 0 0
08-12-2019 16.4 (14:50) 7.6 (00:00) 12 12.5 (21:50) 7.5 (21:50) 0 0 0 0 0
07-12-2019 18.3 (14:50) 7.4 (00:00) 12.8 9.17 (20:20) 5.83 (20:20) 0 0 0 0 0
06-12-2019 17.8 (14:10) 9.3 (00:00) 13.5 8.33 (07:00) 5 (22:10) 0 0 0 0 0
05-12-2019 14.5 (13:50) 7.2 (00:00) 10.8 12.5 (07:50) 6.67 (07:10) 0 0 0 0 0
04-12-2019 13.4 (12:40) 5.8 (00:00) 9.6 8.89 (19:00) 5.56 (20:40) 0 0 0 0 0
03-12-2019 14.1 (14:40) 7.3 (00:00) 10.7 12.78 (01:00) 6.94 (08:20) 0 0 0 0 0
02-12-2019 11.7 (14:50) 7.4 (00:00) 9.5 12.5 (23:40) 6.67 (04:40) 2.6 1.4 0 1.2 0
01-12-2019 11.8 (16:10) 7.7 (00:00) 9.8 8.06 (12:20) 4.17 (20:20) 12.4 0 5 5.6 1.8
30-11-2019 14.7 (11:40) 9.7 (00:00) 12.2 10 (21:50) 5.83 (21:50) 1.6 0 0 0 1.6
29-11-2019 16.8 (14:00) 9.2 (00:00) 13 5.83 (19:00) 3.33 (18:20) 0 0 0 0 0
28-11-2019 15.4 (12:50) 8.3 (00:00) 11.8 5 (14:30) 2.78 (14:30) 0 0 0 0 0
27-11-2019 15.1 (15:30) 9 (00:00) 12.1 8.61 (16:00) 5 (16:00) 0 0 0 0 0
26-11-2019 14.6 (16:10) 9.7 (00:00) 12.2 10 (17:00) 5.28 (18:10) 13.6 0.6 4.4 0.2 8.4
25-11-2019 15.7 (15:00) 10.4 (00:00) 13 7.22 (14:50) 3.61 (15:10) 5.6 1 4.2 0.4 0
24-11-2019 14.7 (14:50) 7.1 (00:00) 10.9 15.83 (01:40) 8.89 (02:00) 0 0 0 0 0
23-11-2019 12.1 (16:20) 7.7 (00:00) 9.9 13.89 (02:10) 6.67 (04:00) 1.2 1.2 0 0 0
22-11-2019 14.6 (15:40) 10.1 (00:00) 12.4 19.17 (16:50) 9.72 (16:50) 44.6 0.6 11.4 32.6 0
21-11-2019 12.8 (16:50) 9.1 (00:00) 11 6.11 (14:10) 3.61 (23:10) 11.8 0.8 8.2 2.6 0.2
20-11-2019 9.8 (16:40) 4.8 (00:00) 7.3 5.28 (07:30) 2.5 (07:30) 14.4 0 6.8 3.8 3.8
19-11-2019 12.1 (12:50) 4.7 (00:00) 8.4 4.72 (13:20) 2.78 (16:50) 0 0 0 0 0
18-11-2019 12.4 (15:20) 4.7 (00:00) 8.5 18.61 (02:40) 11.11 (02:40) 2.8 2.8 0 0 0
17-11-2019 11.9 (15:00) 4.8 (00:00) 8.3 9.17 (23:00) 5 (00:30) 9.2 0.2 1.4 1 6.6
16-11-2019 11.4 (15:50) 1.6 (00:00) 6.5 11.94 (08:40) 8.33 (09:30) 0 0 0 0 0
15-11-2019 9.6 (14:10) 4 (00:00) 6.8 15 (02:10) 8.61 (11:00) 0 0 0 0 0

Gráficas

Temp. máximas Temp. mínimas Temp. medias Precipitaciones Rachas de viento máximas Velocidades máximas media en intervalos de 10 minutos

Datos horarios

Fecha y hora oficial Temperatura (ºC) Velocidad del viento (km/h) Dirección del viento Racha (km/h) Dirección de racha Precipitación (mm) Presión (hPa) Tendencia (hPa) Humedad (%)
2019-12-14 23:00:00 10.3 0 Calma 5 Oeste 0 953.5 -0.3 100
2019-12-14 22:00:00 10.4 3 Oeste 5 Nordeste 0 953.4 -0.2 100
2019-12-14 21:00:00 10.6 2 Sur 5 Nordeste 0 953.6 -0.2 100
2019-12-14 20:00:00 10.9 2 Noroeste 4 Noroeste 0 953.8 0 98
2019-12-14 19:00:00 11.1 2 Noroeste 8 Oeste 0 953.6 0 95
2019-12-14 18:00:00 11.7 4 Sudoeste 8 Oeste 0 953.8 -0.1 85
2019-12-14 17:00:00 12 6 Oeste 17 Noroeste 0 953.8 -0.7 78
2019-12-14 16:00:00 12 8 Noroeste 19 Noroeste 0 953.6 -1.5 77
2019-12-14 15:00:00 12 8 Noroeste 24 Noroeste 0 953.9 -1.8 75
2019-12-14 14:00:00 12.4 6 Noroeste 22 Noroeste 0 954.5 -1.3 74
2019-12-14 13:00:00 11.7 10 Noroeste 19 Noroeste 0 955.1 -0.4 76
2019-12-14 12:00:00 11.2 7 Noroeste 24 Noroeste 0 955.7 0.5 78
2019-12-14 11:00:00 10.4 6 Noroeste 17 Noroeste 0 955.8 0.9 86
2019-12-14 10:00:00 9.9 4 Oeste 11 Oeste 0 955.5 0.6 94
2019-12-14 09:00:00 9.4 5 Sudoeste 12 Oeste 0 955.2 0.5 93
2019-12-14 08:00:00 9.5 3 Noroeste 15 Norte 0 954.9 -0.1 89
2019-12-14 07:00:00 9.6 6 Noroeste 13 Oeste 0 954.9 -0.4 93
2019-12-14 06:00:00 9.5 6 Oeste 11 Sur 0 954.7 -0.6 92
2019-12-14 05:00:00 9 5 Sudoeste 9 Sudoeste 0 955 -0.5 98
2019-12-14 04:00:00 9.4 3 Oeste 12 Noroeste 0 955.3 -0.5 95
2019-12-14 03:00:00 10.4 5 Oeste 22 Noroeste 0 955.3 -0.8 90
2019-12-14 02:00:00 10.6 6 Oeste 15 Oeste 0 955.5 -0.4 93
2019-12-14 01:00:00 10.7 6 Oeste 18 Oeste 0 955.8 -0.1 92
2019-12-14 00:00:00 10.9 4 Noroeste 20 Norte 0 956.1 0.1 91
2019-12-13 23:00:00 11.2 8 Oeste 18 Noroeste 0 955.9 0 98
2019-12-13 22:00:00 11.1 8 Oeste 17 Sudoeste 0 955.9 -0.2 100
2019-12-13 21:00:00 11.3 6 Noroeste 15 Oeste 0 956 0 95
2019-12-13 20:00:00 11.6 6 Sudoeste 13 Oeste 0 955.9 0 100
2019-12-13 19:00:00 11.8 6 Oeste 17 Oeste 0 956.1 0.4 96
2019-12-13 18:00:00 12.1 8 Oeste 20 Noroeste 0 956 0.2 95
2019-12-13 17:00:00 12.5 5 Oeste 24 Noroeste 0.2 955.9 -0.4 97
2019-12-13 16:00:00 12.6 13 Noroeste 27 Noroeste 0 955.7 -1.2 96
2019-12-13 15:00:00 12.6 12 Noroeste 32 Norte 0 955.8 -1.4 99
2019-12-13 14:00:00 12 9 Noroeste 28 Oeste 0 956.3 -0.4 100
2019-12-13 13:00:00 11.7 14 Oeste 30 Noroeste 0 956.9 0.7 100
2019-12-13 12:00:00 11.7 10 Noroeste 57 Norte 0 957.2 1.6 99
2019-12-13 11:00:00 11.3 26 Norte 45 Norte 0 956.7 1.1 98
2019-12-13 10:00:00 11.1 26 Norte 57 Noroeste 0 956.2 0.8 98
2019-12-13 09:00:00 10.7 19 Noroeste 49 Norte 0.4 955.6 0.5 99
2019-12-13 08:00:00 10.7 10 Noroeste 29 Noroeste 0.4 955.6 0.3 100
2019-12-13 07:00:00 10.7 13 Noroeste 42 Noroeste 0 955.4 0.1 100
2019-12-13 06:00:00 10.8 16 Noroeste 36 Noroeste 0.6 955.1 -0.4 100
2019-12-13 05:00:00 11.1 15 Noroeste 38 Noroeste 0.4 955.3 -0.1 100
2019-12-13 04:00:00 11.4 18 Noroeste 44 Noroeste 0.6 955.3 -0.5 100
2019-12-13 03:00:00 11.4 14 Oeste 29 Noroeste 0.8 955.5 -0.4 100
2019-12-13 02:00:00 11.2 13 Oeste 31 Noroeste 0.8 955.4 -0.5 100
2019-12-13 01:00:00 11 11 Oeste 29 Noroeste 1 955.8 0 100
2019-12-13 00:00:00 10.8 11 Oeste 31 Oeste 0.6 955.9 0 100
2019-12-12 23:00:00 10.5 14 Noroeste 33 Noroeste 0.6 955.9 0 100
2019-12-12 22:00:00 10.3 15 Noroeste 40 Noroeste 0.4 955.8 -0.5 100
2019-12-12 21:00:00 10.1 22 Noroeste 42 Oeste 0.2 955.9 -0.5 100
2019-12-12 20:00:00 9.8 16 Noroeste 32 Noroeste 0 955.9 -0.6 100
2019-12-12 19:00:00 10.4 13 Noroeste 34 Oeste 0 956.3 -0.6 89
2019-12-12 18:00:00 10.7 11 Noroeste 35 Noroeste 0 956.4 -0.9 82
2019-12-12 17:00:00 10.9 14 Noroeste 30 Noroeste 0 956.5 -1.4 76
2019-12-12 16:00:00 11.1 10 Noroeste 41 Noroeste 0 956.9 -1.8 78
2019-12-12 15:00:00 10.9 11 Oeste 40 Noroeste 0 957.3 -2 77
2019-12-12 14:00:00 11.8 19 Noroeste 40 Noroeste 0 957.9 -2.4 68
2019-12-12 13:00:00 11.4 18 Noroeste 40 Noroeste 0 958.7 -0.2 72
2019-12-12 12:00:00 9.9 12 Noroeste 46 Norte 0 959.3 0.3 79
2019-12-12 11:00:00 9.2 13 Noroeste 48 Norte 0 960.3 1.3 89
2019-12-12 10:00:00 8.5 23 Norte 46 Norte 0 958.9 0.2 87
2019-12-12 09:00:00 7.6 26 Norte 51 Norte 0 959 0.3 95
2019-12-12 08:00:00 7.6 28 Norte 48 Norte 0 959 -0.2 91
2019-12-12 07:00:00 7.3 26 Norte 46 Norte 0 958.7 -0.9 96
2019-12-12 06:00:00 6.7 27 Norte 46 Norte 0 958.7 -1.1 97
2019-12-12 05:00:00 6.4 30 Norte 51 Norte 0 959.2 -1 100
2019-12-12 04:00:00 5.6 15 Norte 40 Nordeste 0 959.6 -0.6 90
2019-12-12 03:00:00 5.1 17 Norte 36 Norte 0 959.8 -0.5 85
2019-12-12 02:00:00 5.7 15 Norte 35 Norte 0 960.2 0 75
2019-12-12 01:00:00 6.4 17 Norte 36 Noroeste 0 960.2 -0.3 69
2019-12-12 00:00:00 6.6 7 Norte 31 Norte 0 960.3 0.4 66
2019-12-11 23:00:00 6.8 13 Nordeste 37 Norte 0 960.2 0.6 70
2019-12-11 22:00:00 7.1 22 Norte 43 Norte 0 960.5 1.4 72
2019-12-11 21:00:00 7.8 23 Norte 40 Noroeste 0 959.9 1.1 72
2019-12-11 20:00:00 8.7 21 Norte 46 Norte 0 959.6 1 71
2019-12-11 19:00:00 9 24 Norte 46 Norte 0 959.1 0.8 75
2019-12-11 18:00:00 9.8 18 Norte 42 Norte 0 958.8 0.8 73
2019-12-11 17:00:00 10.5 19 Norte 40 Norte 0 958.6 0.4 74
2019-12-11 16:00:00 10.2 20 Norte 54 Norte 0 958.3 -0.2 79
2019-12-11 15:00:00 9.4 24 Norte 41 Norte 0 958 -1.1 88
2019-12-11 14:00:00 10.5 14 Norte 45 Norte 0 958.2 -0.7 95
2019-12-11 13:00:00 11.6 21 Norte 42 Noroeste 0 958.5 -0.3 87
2019-12-11 12:00:00 11.9 21 Norte 44 Norte 0 959.1 0.7 97
2019-12-11 11:00:00 11.1 18 Norte 45 Noroeste 0 958.9 1.3 91
2019-12-11 10:00:00 10.7 10 Norte 45 Norte 0 958.8 1.6 48
2019-12-11 09:00:00 11.4 24 Norte 35 Norte 0 958.4 1.1 29
2019-12-11 08:00:00 11.3 6 Noroeste 18 Noroeste 0 957.6 0.2 27
2019-12-11 07:00:00 9.7 5 Sudoeste 10 Oeste 0 957.2 -0.4 31
2019-12-11 06:00:00 10.4 2 Oeste 9 Noroeste 0 957.3 -0.4 38
2019-12-11 05:00:00 10.8 5 Noroeste 17 Nordeste 0 957.4 -0.6 31
2019-12-11 04:00:00 12.1 8 Sudoeste 31 Noroeste 0 957.6 -0.9 26
2019-12-11 03:00:00 12.8 22 Norte 38 Noroeste 0 957.7 -1.1 29
2019-12-11 02:00:00 13.2 12 Norte 24 Norte 0 958 -0.9 21
2019-12-11 01:00:00 13.4 20 Norte 26 Norte 0 958.5 -0.4 25
2019-12-11 00:00:00 12 4 Norte 22 Noroeste 0 958.8 -0.2 30
2019-12-10 23:00:00 14.1 14 Noroeste 23 Noroeste 0 958.9 0.1 26
2019-12-10 22:00:00 15.1 16 Norte 24 Norte 0 958.9 -0.1 19
2019-12-10 21:00:00 12 7 Noroeste 18 Norte 0 959 0.3 29
2019-12-10 20:00:00 13.2 7 Norte 23 Nordeste 0 958.8 -0.4 26
2019-12-10 19:00:00 13.9 17 Norte 30 Nordeste 0 959 0 27
2019-12-10 18:00:00 14.1 21 Norte 28 Nordeste 0 958.7 -0.6 44
2019-12-10 17:00:00 16.7 3 Sudoeste 11 Sudoeste 0 959.2 -0.8 43
2019-12-10 16:00:00 17.2 7 Sudoeste 13 Sudoeste 0 959 -1.9 41
2019-12-10 15:00:00 18.6 5 Sudoeste 13 Sudoeste 0 959.3 -2.1 39
2019-12-10 14:00:00 18.3 7 Sur 15 Sudoeste 0 960 -1.5 38
2019-12-10 13:00:00 17.8 6 Sudoeste 13 Sur 0 960.9 -0.3 32
2019-12-10 12:00:00 16.5 5 Sur 10 Sur 0 961.4 0.6 35
2019-12-10 11:00:00 13.4 3 Sur 9 Sudeste 0 961.5 0.8 45
2019-12-10 10:00:00 10 2 Nordeste 8 Nordeste 0 961.2 0.8 60
2019-12-10 09:00:00 7.7 2 Norte 10 Nordeste 0 960.8 0.4 50
2019-12-10 08:00:00 7.3 3 Noroeste 13 Este 0 960.7 0 50
2019-12-10 07:00:00 8.7 6 Nordeste 8 Norte 0 960.4 -0.6 44
2019-12-10 06:00:00 10.2 6 Nordeste 13 Norte 0 960.4 -0.3 43
2019-12-10 05:00:00 10.9 4 Norte 18 Nordeste 0 960.7 -0.4 38
2019-12-10 04:00:00 11.6 4 Noroeste 32 Nordeste 0 961 -0.3 37
2019-12-10 03:00:00 11.7 27 Norte 43 Norte 0 960.7 -0.9 37
2019-12-10 02:00:00 11.6 14 Nordeste 41 Nordeste 0 961.1 -0.6 37
2019-12-10 01:00:00 11.4 22 Norte 42 Nordeste 0 961.3 -0.7 40
2019-12-10 00:00:00 11.2 22 Nordeste 41 Norte 0 961.6 -0.2 43
2019-12-09 23:00:00 11.6 25 Norte 40 Nordeste 0 961.7 -0.1 45
2019-12-09 22:00:00 11.2 6 Este 23 Nordeste 0 962 0.5 53
2019-12-09 21:00:00 11.2 5 Nordeste 23 Norte 0 961.8 0.1 71
2019-12-09 20:00:00 11.2 3 Noroeste 23 Nordeste 0 961.8 0.5 73
2019-12-09 19:00:00 11.6 9 Norte 15 Nordeste 0 961.5 0.1 70
2019-12-09 18:00:00 14.4 5 Nordeste 15 Norte 0 961.7 0.3 68
2019-12-09 17:00:00 16.3 10 Este 21 Nordeste 0 961.3 -0.7 53
2019-12-09 16:00:00 16.5 9 Norte 17 Este 0 961.4 -1 49
2019-12-09 15:00:00 17 5 Sur 14 Sudoeste 0 961.4 -1.6 64
2019-12-09 14:00:00 16.9 7 Sur 14 Sur 0 962 -0.9 68
2019-12-09 13:00:00 15.5 5 Sudoeste 11 Sur 0 962.4 0 68
2019-12-09 12:00:00 13.4 4 Sudoeste 8 Sudoeste 0 963 1.2 85
2019-12-09 11:00:00 13 3 Norte 16 Norte 0 962.9 1.6 85
2019-12-09 10:00:00 12.2 4 Este 13 Noroeste 0 962.4 1.8 91
2019-12-09 09:00:00 11 4 Noroeste 17 Norte 0 961.8 1.5 100
2019-12-09 08:00:00 12.2 5 Nordeste 24 Nordeste 0 961.3 1.1 100
2019-12-09 07:00:00 12.2 6 Oeste 19 Norte 0 960.6 0.4 100
2019-12-09 06:00:00 12.2 5 Sur 28 Noroeste 0 960.3 0.1 100
2019-12-09 05:00:00 12.5 10 Norte 36 Norte 0 960.2 -0.2 100
2019-12-09 04:00:00 12.8 20 Norte 33 Norte 0 960.2 -0.3 100
2019-12-09 03:00:00 12.5 10 Norte 23 Norte 0 960.2 -0.2 100
2019-12-09 02:00:00 12.5 6 Noroeste 28 Norte 0 960.4 0.2 100
2019-12-09 01:00:00 12.4 13 Norte 35 Norte 0 960.5 0.6 100
2019-12-09 00:00:00 12 16 Nordeste 31 Norte 0 960.4 0.4 100
2019-12-08 23:00:00 12.1 13 Norte 39 Nordeste 0 960.2 0.3 100
2019-12-08 22:00:00 12.2 26 Norte 45 Norte 0 959.9 0.3 100
2019-12-08 21:00:00 12.2 12 Norte 28 Norte 0 960 0.9 100
2019-12-08 20:00:00 12.4 11 Norte 24 Norte 0 959.9 0.9 96
2019-12-08 19:00:00 12.5 11 Norte 30 Nordeste 0 959.6 0.8 94
2019-12-08 18:00:00 12.7 19 Norte 37 Norte 0 959.1 0.4 94
2019-12-08 17:00:00 13.5 18 Norte 33 Nordeste 0 959 0.3 87
2019-12-08 16:00:00 14.8 12 Norte 23 Norte 0 958.8 -0.6 75
2019-12-08 15:00:00 15.9 14 Norte 27 Norte 0 958.7 -1.1 69
2019-12-08 14:00:00 15.5 13 Nordeste 21 Nordeste 0 958.7 -1.2 63
2019-12-08 13:00:00 14.6 10 Norte 21 Nordeste 0 959.4 0.1 53
2019-12-08 12:00:00 15.6 4 Sur 11 Sur 0 959.8 0.5 60
2019-12-08 11:00:00 13.1 5 Sur 10 Norte 0 959.9 1.3 67
2019-12-08 10:00:00 10.9 5 Oeste 9 Este 0 959.3 1.3 78
2019-12-08 09:00:00 9.4 6 Norte 13 Norte 0 959.3 1.4 73
2019-12-08 08:00:00 8.6 3 Sudoeste 17 Nordeste 0 958.6 0.6 79
2019-12-08 07:00:00 8.2 3 Noroeste 11 Norte 0 958 0.1 76
2019-12-08 06:00:00 9 5 Norte 19 Noroeste 0 957.9 0.2 75
2019-12-08 05:00:00 8.1 5 Nordeste 10 Nordeste 0 958 -0.3 78
2019-12-08 04:00:00 8.3 3 Norte 12 Nordeste 0 957.9 -0.4 82
2019-12-08 03:00:00 9.5 7 Norte 15 Nordeste 0 957.7 -0.7 81
2019-12-08 02:00:00 8.8 4 Noroeste 11 Noroeste 0 958.3 0 87
2019-12-08 01:00:00 8.5 2 Este 10 Nordeste 0 958.3 0.4 89
2019-12-08 00:00:00 9 6 Nordeste 11 Nordeste 0 958.4 0.9 87
2019-12-07 23:00:00 9.9 5 Nordeste 14 Nordeste 0 958.3 1.2 83
2019-12-07 22:00:00 10.5 4 Norte 26 Norte 0 957.9 1.1 80
2019-12-07 21:00:00 11.4 18 Norte 33 Norte 0 957.5 1.3 76
2019-12-07 20:00:00 12 16 Norte 28 Norte 0 957.1 1.2 71
2019-12-07 19:00:00 12.2 5 Nordeste 22 Norte 0 956.8 1.3 68
2019-12-07 18:00:00 13.2 15 Norte 22 Norte 0 956.2 0.7 63
2019-12-07 17:00:00 14.9 12 Norte 22 Norte 0 955.9 0.2 59
2019-12-07 16:00:00 15.5 12 Nordeste 22 Nordeste 0 955.5 -1 61
2019-12-07 15:00:00 16.6 8 Norte 21 Noroeste 0 955.5 -1.3 55
2019-12-07 14:00:00 17.5 9 Sudoeste 16 Sudoeste 0 955.7 -0.9 51
2019-12-07 13:00:00 17.2 6 Sudoeste 13 Sudoeste 0 956.5 0.2 52
2019-12-07 12:00:00 16 5 Sudoeste 11 Sudoeste 0 956.8 0.9 56
2019-12-07 11:00:00 13.1 4 Sur 7 Sur 0 956.6 1.1 67
2019-12-07 10:00:00 9.6 0 Calma 5 Noroeste 0 956.3 1.3 82
2019-12-07 09:00:00 8.3 7 Norte 13 Nordeste 0 955.9 1.1 84
2019-12-07 08:00:00 7.4 0 Calma 9 Nordeste 0 955.5 0.8 89
2019-12-07 07:00:00 8.1 6 Norte 8 Nordeste 0 955 0.4 88
2019-12-07 06:00:00 8 4 Norte 9 Nordeste 0 954.8 0.4 87
2019-12-07 05:00:00 8.1 4 Nordeste 11 Nordeste 0 954.7 0.1 88
2019-12-07 04:00:00 8.3 0 Calma 8 Este 0 954.6 0 86
2019-12-07 03:00:00 9.3 4 Noroeste 17 Nordeste 0 954.4 -0.2 77
2019-12-07 02:00:00 10.2 10 Nordeste 21 Nordeste 0 954.6 0.5 73
2019-12-07 01:00:00 10 6 Nordeste 26 Norte 0 954.6 0.6 72
2019-12-07 00:00:00 10.7 13 Nordeste 26 Nordeste 0 954.6 0.8 72
2019-12-06 23:00:00 10.8 14 Nordeste 27 Nordeste 0 954.1 0.7 75
2019-12-06 22:00:00 10.8 16 Norte 28 Nordeste 0 954 1 77
2019-12-06 21:00:00 11.3 15 Nordeste 24 Nordeste 0 953.8 1.2 73
2019-12-06 20:00:00 11.3 9 Nordeste 28 Nordeste 0 953.4 1 75
2019-12-06 19:00:00 12.1 9 Nordeste 27 Nordeste 0 953 0.9 70
2019-12-06 18:00:00 13.6 11 Nordeste 20 Nordeste 0 952.6 0.6 64
2019-12-06 17:00:00 16.2 9 Nordeste 21 Nordeste 0 952.4 -0.1 49
2019-12-06 16:00:00 17.2 6 Este 21 Nordeste 0 952.1 -1 46
2019-12-06 15:00:00 16.8 12 Nordeste 21 Nordeste 0 952 -1.4 42
2019-12-06 14:00:00 17.6 5 Sudeste 17 Sur 0 952.5 -0.9 46
2019-12-06 13:00:00 17.3 8 Sudeste 23 Sudeste 0 953.1 0.4 47
2019-12-06 12:00:00 15.8 13 Sudeste 23 Sudeste 0 953.4 1 49
2019-12-06 11:00:00 13.9 14 Este 25 Este 0 953.4 1.7 52
2019-12-06 10:00:00 11.2 4 Nordeste 17 Este 0 952.7 1.5 63
2019-12-06 09:00:00 10.2 5 Nordeste 27 Norte 0 952.4 1.9 63
2019-12-06 08:00:00 9.6 13 Nordeste 28 Nordeste 0 951.7 1.2 68
2019-12-06 07:00:00 9.4 17 Nordeste 30 Nordeste 0 951.2 0.8 70
2019-12-06 06:00:00 10.2 10 Nordeste 17 Nordeste 0 950.5 0.4 65
2019-12-06 05:00:00 9.7 5 Este 23 Nordeste 0 950.5 0.3 68
2019-12-06 04:00:00 10 12 Este 25 Este 0 950.4 -0.2 70
2019-12-06 03:00:00 10 12 Este 27 Este 0 950.1 -0.7 70
2019-12-06 02:00:00 9.7 12 Este 27 Este 0 950.2 -0.3 74
2019-12-06 01:00:00 10.1 10 Este 24 Este 0 950.6 0.3 73
2019-12-06 00:00:00 10.5 12 Este 27 Este 0 950.8 1.3 71
2019-12-05 23:00:00 9.7 12 Este 25 Nordeste 0 950.5 1.5 77
2019-12-05 22:00:00 9.5 11 Este 24 Este 0 950.3 1.7 79
2019-12-05 21:00:00 9.8 9 Este 23 Este 0 949.5 1.1 75
2019-12-05 20:00:00 10.2 13 Nordeste 31 Nordeste 0 949 1.2 70
2019-12-05 19:00:00 10.8 12 Este 31 Este 0 948.6 1.5 66
2019-12-05 18:00:00 11.6 15 Este 32 Este 0 948.4 1.3 64
2019-12-05 17:00:00 12.5 14 Este 36 Este 0 947.8 0.2 61
2019-12-05 16:00:00 13.1 10 Este 30 Sudeste 0 947.1 -0.8 61
2019-12-05 15:00:00 13.2 10 Sudeste 28 Este 0 947.1 -1 62
2019-12-05 14:00:00 13.2 14 Este 32 Nordeste 0 947.6 -0.4 59
2019-12-05 13:00:00 14.1 11 Sudeste 28 Este 0 947.9 0.6 58
2019-12-05 12:00:00 12.4 13 Este 31 Este 0 948.1 1.5 63
2019-12-05 11:00:00 11 11 Este 30 Nordeste 0 948 2.1 72
2019-12-05 10:00:00 9.7 18 Nordeste 37 Este 0 947.3 2 78
2019-12-05 09:00:00 8 20 Nordeste 39 Norte 0 946.6 1.5 91
2019-12-05 08:00:00 7.9 21 Nordeste 45 Norte 0 945.9 1.1 93
2019-12-05 07:00:00 7.9 19 Nordeste 36 Nordeste 0 945.3 0.6 97
2019-12-05 06:00:00 7.8 8 Nordeste 39 Nordeste 0 945.1 0.3 96
2019-12-05 05:00:00 7.8 14 Nordeste 33 Nordeste 0 944.8 0 96
2019-12-05 04:00:00 7.7 13 Nordeste 24 Nordeste 0 944.7 0 93
2019-12-05 03:00:00 7.4 10 Nordeste 18 Nordeste 0 944.8 0.3 95
2019-12-05 02:00:00 7.6 14 Norte 27 Norte 0 944.8 0.8 91
2019-12-05 01:00:00 7.7 9 Nordeste 20 Nordeste 0 944.7 0.7 89
2019-12-05 00:00:00 7.6 9 Nordeste 21 Nordeste 0 944.5 0.9 87
2019-12-04 23:00:00 7.8 8 Nordeste 19 Norte 0 944 1.3 84
2019-12-04 22:00:00 7.8 4 Sudeste 27 Norte 0 944 1.6 87
2019-12-04 21:00:00 8.1 13 Nordeste 30 Norte 0 943.6 1.7 87
2019-12-04 20:00:00 8.1 14 Nordeste 27 Norte 0 942.7 1 89
2019-12-04 19:00:00 8.5 18 Norte 32 Norte 0 942.4 0.8 86
2019-12-04 18:00:00 9.3 13 Norte 22 Norte 0 941.9 0.2 80
2019-12-04 17:00:00 10.7 11 Norte 23 Norte 0 941.7 -0.3 69
2019-12-04 16:00:00 11.1 8 Norte 19 Norte 0 941.6 -0.9 69
2019-12-04 15:00:00 10.5 11 Norte 22 Norte 0 941.7 -1.5 79
2019-12-04 14:00:00 12.8 7 Oeste 24 Sudoeste 0 942 -1.2 66
2019-12-04 13:00:00 12.8 9 Sudoeste 17 Sudoeste 0 942.5 -0.7 65
2019-12-04 12:00:00 12.5 6 Sudoeste 14 Sudoeste 0 943.2 0.3 71
2019-12-04 11:00:00 10 5 Sudoeste 9 Sur 0 943.2 0.5 79
2019-12-04 10:00:00 8.1 5 Sudoeste 8 Sur 0 943.2 0.5 91
2019-12-04 09:00:00 6.6 2 Norte 9 Sur 0 942.9 -0.1 99
2019-12-04 08:00:00 7 5 Sudoeste 16 Noroeste 0 942.7 -0.4 96
2019-12-04 07:00:00 7.2 6 Norte 18 Nordeste 0 942.7 -0.9 93
2019-12-04 06:00:00 5.9 4 Nordeste 9 Oeste 0 943 -1 99
2019-12-04 05:00:00 7.3 3 Nordeste 10 Nordeste 0 943.1 -1.3 92
2019-12-04 04:00:00 6.8 2 Sudeste 10 Noroeste 0 943.6 -1 94
2019-12-04 03:00:00 6.4 0 Calma 5 Noroeste 0 944 -1.1 99
2019-12-04 02:00:00 6.7 5 Nordeste 12 Oeste 0 944.4 -0.8 97
2019-12-04 01:00:00 8.1 3 Oeste 11 Nordeste 0 944.6 -0.3 85
2019-12-04 00:00:00 8.9 7 Nordeste 24 Norte 0 945.1 0.5 81
2019-12-03 23:00:00 9.3 14 Norte 31 Norte 0 945.2 0.9 78
2019-12-03 22:00:00 9.2 17 Norte 31 Nordeste 0 944.9 0.6 80
2019-12-03 21:00:00 9.5 19 Norte 30 Nordeste 0 944.6 0.6 80
2019-12-03 20:00:00 9.6 17 Norte 28 Norte 0 944.3 0.3 81
2019-12-03 19:00:00 9.8 17 Nordeste 29 Nordeste 0 944.3 0.6 82
2019-12-03 18:00:00 10.9 17 Norte 27 Norte 0 944 0.3 75
2019-12-03 17:00:00 12.1 15 Norte 36 Norte 0 944 -0.1 68
2019-12-03 16:00:00 12.6 14 Nordeste 34 Nordeste 0 943.7 -1 67
2019-12-03 15:00:00 13.6 10 Nordeste 26 Este 0 943.7 -1.8 64
2019-12-03 14:00:00 13.2 18 Norte 28 Norte 0 944.1 -1.4 69
2019-12-03 13:00:00 13.3 9 Norte 23 Norte 0 944.7 -0.5 63
2019-12-03 12:00:00 12.9 3 Norte 14 Norte 0 945.5 0.4 64
2019-12-03 11:00:00 10.3 9 Norte 36 Norte 0 945.5 0.5 75
2019-12-03 10:00:00 8.4 22 Norte 38 Norte 0 945.2 0.5 81
2019-12-03 09:00:00 7.9 22 Norte 44 Norte 0 945.1 0.5 84
2019-12-03 08:00:00 7.4 11 Nordeste 37 Norte 0 945 0.2 88
2019-12-03 07:00:00 7.6 24 Norte 45 Nordeste 0 944.7 -0.5 88
2019-12-03 06:00:00 7.6 18 Norte 39 Norte 0 944.6 -0.8 90
2019-12-03 05:00:00 7.6 16 Nordeste 31 Nordeste 0 944.8 -1.1 90
2019-12-03 04:00:00 9.5 16 Nordeste 34 Nordeste 0 945.2 -0.8 76
2019-12-03 03:00:00 9.7 15 Este 30 Este 0 945.4 -0.6 77
2019-12-03 02:00:00 9.1 10 Este 39 Nordeste 0 945.9 0 82
2019-12-03 01:00:00 10.7 24 Nordeste 46 Nordeste 0 946 0.2 72
2019-12-03 00:00:00 10 16 Este 45 Este 0 946 0.5 79
2019-12-02 23:00:00 9.8 14 Este 35 Este 0 945.9 1.1 80
2019-12-02 22:00:00 10 17 Este 41 Nordeste 0 945.8 1.6 79
2019-12-02 21:00:00 9.3 18 Nordeste 42 Nordeste 0 945.5 1.8 83
2019-12-02 20:00:00 9.3 21 Nordeste 40 Nordeste 0 944.8 1.6 82
2019-12-02 19:00:00 9.4 18 Nordeste 38 Nordeste 0 944.2 1.5 83
2019-12-02 18:00:00 10.3 19 Nordeste 34 Nordeste 0.2 943.7 1.1 78
2019-12-02 17:00:00 10.7 18 Nordeste 33 Nordeste 0 943.2 0.2 80
2019-12-02 16:00:00 10.1 14 Nordeste 32 Este 1 942.7 -0.8 90
2019-12-02 15:00:00 11.6 17 Este 33 Este 0 942.6 -1.1 72
2019-12-02 14:00:00 11 12 Este 27 Este 0 943 -0.3 76
2019-12-02 13:00:00 10.2 8 Nordeste 31 Nordeste 0 943.5 1 83
2019-12-02 12:00:00 9.8 14 Nordeste 33 Este 0 943.7 1.2 84
2019-12-02 11:00:00 9.9 15 Este 37 Este 0 943.3 1.5 90
2019-12-02 10:00:00 8.4 11 Nordeste 27 Nordeste 0 942.5 1.1 95
2019-12-02 09:00:00 7.7 15 Este 37 Nordeste 0 942.5 1.1 94
2019-12-02 08:00:00 7.9 24 Nordeste 39 Nordeste 0 941.8 0.4 92
2019-12-02 07:00:00 7.8 22 Nordeste 33 Nordeste 0 941.4 -0.3 98
2019-12-02 06:00:00 8 16 Nordeste 40 Nordeste 0 941.4 0 100
2019-12-02 05:00:00 8.1 23 Nordeste 39 Nordeste 0.2 941.4 -0.2 96
2019-12-02 04:00:00 8 16 Nordeste 34 Nordeste 0.4 941.7 -0.4 100
2019-12-02 03:00:00 8.1 8 Norte 23 Nordeste 0.2 941.4 -0.9 100
2019-12-02 02:00:00 8.4 8 Nordeste 15 Nordeste 0.2 941.6 -0.8 100
2019-12-02 01:00:00 8.6 9 Norte 20 Norte 0.4 942.1 -0.2 100
2019-12-02 00:00:00 8.2 2 Nordeste 8 Nordeste 0 942.3 -0.1 100
2019-12-01 23:00:00 8.1 0 Calma 6 Nordeste 0.2 942.4 -0.3 100
2019-12-01 22:00:00 7.9 2 Noroeste 9 Noroeste 0.2 942.3 -0.4 100
2019-12-01 21:00:00 8.2 8 Noroeste 29 Norte 0 942.4 -0.4 100
2019-12-01 20:00:00 9.1 8 Noroeste 20 Noroeste 0 942.7 -0.4 100
2019-12-01 19:00:00 9.2 8 Noroeste 25 Noroeste 1.4 942.7 -0.7 100
2019-12-01 18:00:00 9.7 5 Noroeste 17 Oeste 2 942.8 -1 100
2019-12-01 17:00:00 10.2 8 Oeste 24 Oeste 0.2 943.1 -1.7 97
2019-12-01 16:00:00 11.5 6 Oeste 15 Noroeste 0 943.4 -2.5 100
2019-12-01 15:00:00 10.3 9 Noroeste 19 Noroeste 3 943.8 -3.1 100
2019-12-01 14:00:00 10.3 11 Oeste 20 Oeste 0 944.8 -2.4 100
2019-12-01 13:00:00 10.3 10 Oeste 29 Noroeste 0.4 945.9 -1.4 100
2019-12-01 12:00:00 9.8 6 Oeste 19 Oeste 3.6 946.9 -0.2 100
2019-12-01 11:00:00 9.4 9 Oeste 22 Oeste 0.8 947.2 0 100
2019-12-01 10:00:00 9.2 9 Oeste 19 Oeste 0 947.3 -0.4 100
2019-12-01 09:00:00 8.9 9 Oeste 25 Oeste 0.2 947.1 -1 100
2019-12-01 08:00:00 8.5 6 Oeste 13 Oeste 0.4 947.2 -1.4 100
2019-12-01 07:00:00 7.8 2 Este 13 Oeste 0 947.7 -1.7 100
2019-12-01 06:00:00 8.4 5 Oeste 16 Noroeste 0 948.1 -1.4 100
2019-12-01 05:00:00 8.7 5 Oeste 13 Noroeste 0 948.6 -1.6 100
2019-12-01 04:00:00 8.2 6 Noroeste 13 Noroeste 0 949.4 -1.5 100
2019-12-01 03:00:00 8.9 9 Noroeste 17 Norte 0 949.5 -1.7 100
2019-12-01 02:00:00 9.1 9 Noroeste 21 Noroeste 0 950.2 -1.2 100
2019-12-01 01:00:00 9.4 7 Oeste 18 Norte 0 950.9 -1 100
2019-12-01 00:00:00 9.7 6 Oeste 33 Norte 0 951.2 -1 100
2019-11-30 23:00:00 10.9 10 Noroeste 25 Noroeste 0 951.4 -1.1 100
2019-11-30 22:00:00 11.8 12 Noroeste 36 Noroeste 1.4 951.9 -0.7 100
2019-11-30 21:00:00 12.3 6 Oeste 16 Oeste 0 952.2 -0.3 100
2019-11-30 20:00:00 12.3 8 Oeste 22 Oeste 0.2 952.5 -0.2 100
2019-11-30 19:00:00 12.8 13 Oeste 23 Oeste 0 952.6 -0.5 96
2019-11-30 18:00:00 13.2 8 Oeste 15 Oeste 0 952.5 -1 89
2019-11-30 17:00:00 13.6 8 Oeste 18 Oeste 0 952.7 -1.7 83
2019-11-30 16:00:00 13.7 9 Oeste 17 Noroeste 0 953.1 -2.1 80
2019-11-30 15:00:00 14.1 8 Oeste 21 Oeste 0 953.5 -2.3 76
2019-11-30 14:00:00 13.7 8 Noroeste 21 Oeste 0 954.4 -1.3 80
2019-11-30 13:00:00 13.9 9 Oeste 19 Noroeste 0 955.2 -0.2 80
2019-11-30 12:00:00 14.3 7 Oeste 17 Oeste 0 955.8 0.6 78
2019-11-30 11:00:00 14 5 Oeste 11 Oeste 0 955.7 0.6 91
2019-11-30 10:00:00 11.7 4 Sudoeste 7 Noroeste 0 955.4 0.6 99
2019-11-30 09:00:00 10.3 2 Sudoeste 7 Noroeste 0 955.2 0.2 100
2019-11-30 08:00:00 10.6 4 Norte 23 Nordeste 0 955.1 0.1 100
2019-11-30 07:00:00 11.4 11 Norte 27 Nordeste 0 954.8 -0.3 100
2019-11-30 06:00:00 11.5 14 Norte 23 Nordeste 0 955 -0.1 100
2019-11-30 05:00:00 11.5 14 Norte 26 Nordeste 0 955 -0.3 100
2019-11-30 04:00:00 11.3 6 Norte 18 Noroeste 0 955.1 -0.8 92
2019-11-30 03:00:00 12.4 13 Norte 21 Norte 0 955.1 -0.8 85
2019-11-30 02:00:00 12 7 Norte 22 Nordeste 0 955.3 -0.5 87
2019-11-30 01:00:00 11.5 10 Noroeste 16 Noroeste 0 955.9 0.3 91
2019-11-30 00:00:00 10 5 Nordeste 8 Nordeste 0 955.9 0.5 100
2019-11-29 23:00:00 10.1 5 Nordeste 10 Nordeste 0 955.8 0.4 98
2019-11-29 22:00:00 10.7 5 Nordeste 9 Nordeste 0 955.6 0.4 94
2019-11-29 21:00:00 11.9 3 Norte 17 Nordeste 0 955.4 0.1 86
2019-11-29 20:00:00 12.8 12 Norte 19 Norte 0 955.4 0.3 82
2019-11-29 19:00:00 13 11 Norte 21 Norte 0 955.2 0.2 79
2019-11-29 18:00:00 13.5 10 Norte 18 Norte 0 955.3 0.1 78
2019-11-29 17:00:00 14.7 7 Norte 17 Norte 0 955.1 -0.5 71
2019-11-29 16:00:00 15.4 8 Norte 18 Nordeste 0 955 -1.1 70
2019-11-29 15:00:00 16.2 8 Noroeste 21 Norte 0 955.2 -1.1 66
2019-11-29 14:00:00 16.4 11 Oeste 19 Oeste 0 955.6 -0.7 65
2019-11-29 13:00:00 14.9 7 Noroeste 18 Noroeste 0 956.1 0.5 73
2019-11-29 12:00:00 14.9 5 Noroeste 18 Norte 0 956.3 1.2 77
2019-11-29 11:00:00 13.9 8 Noroeste 15 Noroeste 0 956.3 1.6 76
2019-11-29 10:00:00 12 3 Oeste 6 Sudoeste 0 955.6 1.3 90
2019-11-29 09:00:00 11.1 3 Noroeste 13 Noroeste 0 955.1 1 92
2019-11-29 08:00:00 10.3 7 Norte 17 Norte 0 954.7 0.7 96
2019-11-29 07:00:00 9.5 3 Norte 14 Norte 0 954.3 0.3 100
2019-11-29 06:00:00 10.4 9 Norte 17 Norte 0 954.1 0.2 100
2019-11-29 05:00:00 9.5 4 Noroeste 12 Norte 0 954 0.2 100
2019-11-29 04:00:00 9.7 4 Noroeste 10 Noroeste 0 954 0.2 100
2019-11-29 03:00:00 10.2 3 Noroeste 20 Norte 0 953.9 -0.1 100
2019-11-29 02:00:00 10.2 4 Noroeste 8 Noroeste 0 953.8 -0.3 100
2019-11-29 01:00:00 10 2 Norte 7 Este 0 953.8 0.3 100
2019-11-29 00:00:00 9.9 3 Nordeste 5 Nordeste 0 954 0.8 100
2019-11-28 23:00:00 9.6 4 Noroeste 5 Noroeste 0 954.1 1.2 100
2019-11-28 22:00:00 9.6 3 Noroeste 8 Noroeste 0 953.5 0.8 100
2019-11-28 21:00:00 9.6 6 Noroeste 13 Oeste 0 953.2 0.7 100
2019-11-28 20:00:00 10.6 5 Nordeste 10 Nordeste 0 952.9 0.6 93
2019-11-28 19:00:00 12.4 3 Noroeste 6 Norte 0 952.7 0.6 84
2019-11-28 18:00:00 13.3 3 Oeste 14 Noroeste 0 952.5 0.3 88
2019-11-28 17:00:00 13.9 5 Noroeste 15 Oeste 0 952.3 -0.4 79
2019-11-28 16:00:00 14.3 5 Oeste 13 Sudoeste 0 952.1 -1.3 80
2019-11-28 15:00:00 14.5 7 Sudoeste 18 Sudoeste 0 952.2 -1.5 80
2019-11-28 14:00:00 14.2 6 Sudoeste 16 Sudoeste 0 952.7 -0.8 80
2019-11-28 13:00:00 14.7 8 Oeste 16 Sudoeste 0 953.4 0.2 75
2019-11-28 12:00:00 13.8 8 Sudoeste 15 Sudoeste 0 953.7 0.9 79
2019-11-28 11:00:00 13 9 Sudoeste 13 Sudoeste 0 953.5 1.4 83
2019-11-28 10:00:00 10.8 0 Calma 9 Norte 0 953.2 1.4 99
2019-11-28 09:00:00 8.8 2 Noroeste 6 Norte 0 952.8 1.7 100
2019-11-28 08:00:00 8.7 3 Noroeste 7 Nordeste 0 952.1 0.9 100
2019-11-28 07:00:00 9.9 3 Noroeste 6 Este 0 951.8 0.7 98
2019-11-28 06:00:00 10.2 3 Noroeste 10 Norte 0 951.1 0.1 96
2019-11-28 05:00:00 10.3 8 Noroeste 15 Oeste 0 951.2 -0.1 95
2019-11-28 04:00:00 10.2 3 Oeste 8 Oeste 0 951.1 -0.5 100
2019-11-28 03:00:00 9.9 3 Sudoeste 7 Noroeste 0 951 -0.2 100
2019-11-28 02:00:00 9.8 4 Noroeste 9 Noroeste 0 951.3 -0.2 100
2019-11-28 01:00:00 9.3 2 Sudeste 12 Noroeste 0 951.6 0.6 100
2019-11-28 00:00:00 9.8 5 Noroeste 17 Norte 0 951.2 0.3 99
2019-11-27 23:00:00 10 7 Noroeste 11 Noroeste 0 951.5 1.1 98
2019-11-27 22:00:00 10.3 4 Noroeste 17 Norte 0 951 1.1 94
2019-11-27 21:00:00 11.2 11 Norte 17 Noroeste 0 950.9 1.4 88
2019-11-27 20:00:00 10.7 6 Noroeste 12 Norte 0 950.4 1.2 94
2019-11-27 19:00:00 11.1 6 Noroeste 10 Noroeste 0 949.9 0.8 89
2019-11-27 18:00:00 12.7 5 Oeste 24 Noroeste 0 949.5 0.2 75
2019-11-27 17:00:00 14.5 14 Oeste 29 Oeste 0 949.2 -0.4 64
2019-11-27 16:00:00 14 18 Noroeste 31 Noroeste 0 949.1 -1 69
2019-11-27 15:00:00 14 12 Oeste 27 Noroeste 0 949.3 -1.4 74
2019-11-27 14:00:00 13.7 12 Noroeste 25 Noroeste 0 949.6 -1 80
2019-11-27 06:00:00 10.2 6 Noroeste 20 Noroeste 0 947.7 -0.1 100
2019-11-27 05:00:00 11.8 9 Noroeste 23 Noroeste 0 947.9 0 100
2019-11-27 04:00:00 12.3 11 Oeste 27 Noroeste 0 947.8 -0.5 100
2019-11-27 03:00:00 12.5 8 Noroeste 26 Noroeste 0 947.8 -0.7 100
2019-11-27 02:00:00 12 10 Oeste 24 Oeste 0 947.9 -0.5 100
2019-11-27 01:00:00 11.6 10 Noroeste 27 Noroeste 0 948.3 0 100
2019-11-27 00:00:00 12.4 12 Oeste 20 Noroeste 0 948.5 0.6 100
2019-11-26 23:00:00 12.7 9 Noroeste 22 Oeste 0.2 948.4 0.6 100
2019-11-26 22:00:00 13.5 10 Noroeste 30 Noroeste 2.4 948.3 0.6 100
2019-11-26 21:00:00 13.6 12 Oeste 22 Sur 4.8 947.9 0.3 100
2019-11-26 20:00:00 13.6 10 Sudoeste 33 Sudoeste 1 947.8 0.1 100
2019-11-26 19:00:00 13.9 16 Sudoeste 34 Sudoeste 0 947.7 -0.1 100
2019-11-26 18:00:00 14.2 14 Sudoeste 33 Sudoeste 0 947.6 -0.8 100
2019-11-26 17:00:00 14.3 17 Sudoeste 36 Sudoeste 0 947.7 -1.1 100
2019-11-26 16:00:00 14.5 15 Sudoeste 35 Sudoeste 0 947.8 -1.9 100
2019-11-26 15:00:00 14.2 11 Sudoeste 27 Oeste 0 948.4 -2 100
2019-11-26 14:00:00 13.7 10 Sudoeste 31 Sudoeste 0.2 948.8 -1.9 100
2019-11-26 13:00:00 13.2 12 Oeste 29 Sudoeste 0 949.7 -0.7 100
2019-11-26 12:00:00 13.2 14 Sudoeste 26 Sudoeste 0.2 950.4 0 100
2019-11-26 11:00:00 13.2 6 Sudoeste 19 Oeste 0.4 950.7 0.5 100
2019-11-26 10:00:00 13 9 Sudoeste 18 Oeste 0.6 950.4 0 100
2019-11-26 09:00:00 12.7 2 Noroeste 6 Sudoeste 1.4 950.4 -0.1 100
2019-11-26 08:00:00 12.4 3 Nordeste 4 Este 1.2 950.2 -0.4 100
2019-11-26 07:00:00 12.4 4 Sudoeste 12 Sudoeste 0.6 950.4 -0.3 100
2019-11-26 06:00:00 12.4 0 Calma 7 Norte 0.4 950.5 -0.5 100
2019-11-26 05:00:00 11.6 0 Calma 5 Oeste 0.2 950.6 -0.8 100
2019-11-26 04:00:00 11.1 5 Oeste 8 Oeste 0 950.7 -1.3 100
2019-11-26 03:00:00 10.5 4 Noroeste 8 Nordeste 0 951 -1.1 100
2019-11-26 02:00:00 9.9 3 Nordeste 7 Nordeste 0 951.4 -0.8 100
2019-11-26 01:00:00 10.6 2 Sudeste 9 Noroeste 0 952 -0.1 100
2019-11-26 00:00:00 11.4 5 Oeste 13 Oeste 0 952.1 0.2 100
2019-11-25 23:00:00 11.9 5 Oeste 10 Noroeste 0 952.2 0.8 100
2019-11-25 22:00:00 12.6 5 Noroeste 13 Noroeste 0 952.1 0.7 100
2019-11-25 21:00:00 13.6 4 Noroeste 19 Noroeste 0 951.9 0.6 91
2019-11-25 20:00:00 14.1 8 Noroeste 21 Norte 0 951.4 0.8 95
2019-11-25 19:00:00 14.2 3 Oeste 18 Oeste 0 951.4 0.5 100
2019-11-25 18:00:00 14.5 6 Noroeste 20 Oeste 0 951.3 0.4 96
2019-11-25 17:00:00 15.2 8 Oeste 24 Noroeste 0 950.6 -0.4 98
2019-11-25 16:00:00 15.2 8 Oeste 25 Oeste 0 950.9 -0.9 100
2019-11-25 15:00:00 15.6 11 Oeste 26 Oeste 0 950.9 -1.2 100
2019-11-25 14:00:00 15.3 10 Oeste 20 Noroeste 0.2 951 -1.1 100
2019-11-25 13:00:00 14 7 Oeste 17 Oeste 0.2 951.8 0 100
2019-11-25 12:00:00 13.4 5 Oeste 10 Oeste 0.2 952.1 0.9 100
2019-11-25 11:00:00 12.5 0 Calma 5 Sudeste 0.8 952.1 1.1 100
2019-11-25 10:00:00 11.9 3 Sudeste 7 Nordeste 2 951.8 1.1 100
2019-11-25 09:00:00 11.5 0 Calma 10 Oeste 0.6 951.2 0.6 100
2019-11-25 08:00:00 11.3 0 Calma 8 Sudoeste 0.4 951 0.4 100
2019-11-25 07:00:00 11.3 4 Sudoeste 15 Oeste 0.2 950.7 -0.4 100
2019-11-25 06:00:00 10.9 4 Oeste 10 Oeste 0.2 950.6 -0.7 100
2019-11-25 05:00:00 10.7 5 Sudoeste 9 Sudoeste 0.2 950.6 -1 100
2019-11-25 04:00:00 10.4 6 Sudoeste 8 Sudoeste 0 951.1 -0.9 100
2019-11-25 03:00:00 10.5 4 Sudoeste 9 Sudoeste 0.2 951.3 -0.8 100
2019-11-25 02:00:00 10.7 3 Sudoeste 7 Sudoeste 0.4 951.6 -0.7 100
2019-11-25 01:00:00 10.8 6 Oeste 17 Noroeste 0 952 -0.1 100
2019-11-25 00:00:00 10.7 5 Oeste 17 Oeste 0 952.1 0 100
2019-11-24 23:00:00 10.7 2 Oeste 9 Sudoeste 0 952.3 0.5 100
2019-11-24 22:00:00 10.8 4 Sudoeste 9 Sudoeste 0 952.1 0.8 99
2019-11-24 21:00:00 10.8 3 Sudoeste 10 Sudoeste 0 952.1 0.9 95
2019-11-24 20:00:00 10.6 4 Noroeste 10 Noroeste 0 951.8 0.8 89
2019-11-24 19:00:00 11.3 5 Noroeste 9 Noroeste 0 951.3 0.5 83
2019-11-24 18:00:00 11.8 6 Oeste 15 Noroeste 0 951.2 0.4 78
2019-11-24 17:00:00 12.2 9 Oeste 20 Noroeste 0 951 -0.2 73
2019-11-24 16:00:00 12.8 10 Noroeste 24 Noroeste 0 950.8 -1 66
2019-11-24 15:00:00 13.1 14 Oeste 30 Oeste 0 950.8 -1.5 64
2019-11-24 14:00:00 12.6 15 Noroeste 28 Noroeste 0 951.2 -0.9 66
2019-11-24 13:00:00 12.7 12 Noroeste 31 Noroeste 0 951.8 0.3 66
2019-11-24 12:00:00 11.8 9 Oeste 23 Oeste 0 952.3 1.3 72
2019-11-24 11:00:00 10.3 8 Noroeste 23 Norte 0 952.1 1.2 81
2019-11-24 10:00:00 9.1 4 Noroeste 22 Norte 0 951.5 1.6 91
2019-11-24 09:00:00 7.9 11 Norte 27 Norte 0 951 1.5 98
2019-11-24 08:00:00 7.2 14 Norte 35 Norte 0 950.9 1.9 100
2019-11-24 07:00:00 7.2 18 Norte 36 Norte 0 949.9 1.1 100
2019-11-24 06:00:00 7.9 12 Norte 33 Nordeste 0 949.5 0.8 89
2019-11-24 05:00:00 7.7 18 Norte 39 Nordeste 0 949 0.8 90
2019-11-24 04:00:00 7.8 27 Norte 48 Nordeste 0 948.8 0.6 90
2019-11-24 03:00:00 8 17 Norte 46 Nordeste 0 948.7 0.3 84
2019-11-24 02:00:00 8.1 32 Norte 57 Norte 0 948.2 -0.3 87
2019-11-24 01:00:00 7.9 26 Norte 48 Norte 0 948.2 0.2 88
2019-11-24 00:00:00 8 21 Norte 37 Norte 0 948.4 0.3 87
2019-11-23 23:00:00 8.2 12 Sudeste 46 Norte 0 948.5 0.8 84
2019-11-23 22:00:00 8.6 17 Norte 44 Nordeste 0 948 1 79
2019-11-23 21:00:00 8.6 16 Noroeste 25 Norte 0 948.1 2.2 81
2019-11-23 20:00:00 8.5 13 Noroeste 18 Noroeste 0 947.7 2.6 85
2019-11-23 19:00:00 9 7 Noroeste 15 Noroeste 0 947 2.4 80
2019-11-23 18:00:00 9.9 5 Noroeste 24 Noroeste 0 945.9 1.6 75
2019-11-23 17:00:00 11.2 11 Noroeste 32 Norte 0 945.1 0.8 67
2019-11-23 16:00:00 11.4 9 Noroeste 38 Noroeste 0 944.6 0.4 70
2019-11-23 15:00:00 11.1 15 Noroeste 39 Noroeste 0 944.3 0.2 69
2019-11-23 14:00:00 11.3 16 Norte 48 Norte 0 944.3 0.9 67
2019-11-23 13:00:00 10.8 21 Norte 44 Norte 0 944.2 2.1 71
2019-11-23 12:00:00 10.1 23 Norte 48 Norte 0 944.1 3 79
2019-11-23 11:00:00 9.7 16 Noroeste 37 Norte 0 943.4 3.8 80
2019-11-23 10:00:00 9 13 Noroeste 28 Noroeste 0 942.1 3.7 91
2019-11-23 09:00:00 8.1 10 Oeste 28 Noroeste 0 941.1 3.1 94
2019-11-23 08:00:00 8.1 13 Noroeste 31 Noroeste 0 939.6 2 99
2019-11-23 07:00:00 8.2 15 Noroeste 34 Noroeste 0 938.4 1.2 97
2019-11-23 06:00:00 8.4 13 Noroeste 36 Noroeste 0 938 1.2 100
2019-11-23 05:00:00 8.5 14 Noroeste 45 Noroeste 1.2 937.6 1.1 99
2019-11-23 04:00:00 9.5 24 Noroeste 45 Noroeste 0 937.2 0.8 97
2019-11-23 03:00:00 10.2 17 Noroeste 50 Oeste 0 936.8 0.7 90
2019-11-23 02:00:00 10.4 21 Noroeste 46 Oeste 0 936.5 0.3 86
2019-11-23 01:00:00 10.7 21 Noroeste 47 Noroeste 0 936.4 0.7 87
2019-11-23 00:00:00 10.2 10 Noroeste 42 Noroeste 0 936.1 0.9 88
2019-11-22 23:00:00 10.6 14 Noroeste 28 Oeste 0 936.2 1.5 85
2019-11-22 22:00:00 10.7 14 Noroeste 45 Noroeste 0 935.7 1.8 81
2019-11-22 21:00:00 11.6 19 Noroeste 46 Oeste 0 935.2 2 89
2019-11-22 20:00:00 11.6 18 Noroeste 39 Noroeste 0 934.7 2.4 90
2019-11-22 19:00:00 11.2 14 Noroeste 37 Noroeste 0 933.9 2.1 85
2019-11-22 18:00:00 12.2 18 Oeste 50 Noroeste 0 933.2 2.1 87
2019-11-22 17:00:00 12.9 24 Noroeste 69 Noroeste 0.2 932.3 0 94
2019-11-22 16:00:00 14.1 24 Noroeste 57 Oeste 9 931.8 -2.2 100
2019-11-22 15:00:00 14.3 18 Oeste 48 Oeste 7.2 931.1 -4.2 100
2019-11-22 14:00:00 13.6 14 Sudoeste 44 Oeste 12.2 932.3 -3.9 100
2019-11-22 13:00:00 13.2 15 Oeste 53 Oeste 4 934 -2.7 100
2019-11-22 12:00:00 12.8 18 Oeste 45 Sudoeste 6.2 935.3 -1.8 100
2019-11-22 11:00:00 12.3 15 Sudoeste 38 Sudoeste 2.8 936.2 -1.1 100
2019-11-22 10:00:00 12 24 Sudoeste 44 Sudoeste 0.8 936.7 -1.5 100
2019-11-22 09:00:00 11.7 18 Sudoeste 40 Sudoeste 0.2 937.1 -2.1 100
2019-11-22 08:00:00 11.2 16 Sudoeste 28 Oeste 0.4 937.3 -2.3 100
2019-11-22 07:00:00 10.5 8 Sudoeste 18 Sudoeste 1 938.2 -2.4 100
2019-11-22 06:00:00 10.4 3 Sudoeste 14 Sudoeste 0.4 939.2 -1.3 100
2019-11-22 05:00:00 10.3 9 Sudoeste 15 Sudoeste 0.2 939.6 -1 100
2019-11-22 04:00:00 10.1 8 Sudoeste 18 Oeste 0 940.6 -0.4 100
2019-11-22 03:00:00 10.1 6 Sudoeste 16 Sudoeste 0 940.5 -1.2 100
2019-11-22 02:00:00 10.3 8 Sudoeste 17 Sudoeste 0 940.6 -1.2 100
2019-11-22 01:00:00 10.4 10 Sudoeste 19 Sudoeste 0 941 -1 100
2019-11-22 00:00:00 10.7 10 Sudoeste 21 Sudoeste 0.2 941.7 -0.7 100
2019-11-21 23:00:00 10.9 11 Sudoeste 20 Sudoeste 0 941.8 -0.4 100
2019-11-21 22:00:00 10.9 5 Sudoeste 14 Sudoeste 0 942 0.3 100
2019-11-21 21:00:00 10.9 6 Oeste 22 Sudoeste 0 942.4 1.1 100
2019-11-21 20:00:00 11 8 Oeste 15 Sudoeste 0 942.2 1 100
2019-11-21 19:00:00 10.8 3 Noroeste 9 Sudoeste 0 941.7 0.4 100
2019-11-21 18:00:00 11.8 2 Sudoeste 11 Sudoeste 0 941.3 -0.2 100
2019-11-21 17:00:00 12.6 4 Oeste 17 Noroeste 0 941.2 -0.7 98
2019-11-21 16:00:00 12.1 9 Oeste 17 Oeste 0.2 941.3 -1.3 98
2019-11-21 15:00:00 12 9 Oeste 22 Oeste 0 941.5 -1.7 100
2019-11-21 14:00:00 12.1 11 Oeste 22 Oeste 0.8 941.9 -1.2 100
2019-11-21 13:00:00 11.2 5 Oeste 14 Oeste 1.6 942.6 -0.3 100
2019-11-21 12:00:00 10.9 7 Oeste 14 Oeste 0 943.2 0.5 100
2019-11-21 11:00:00 10.5 4 Sudoeste 8 Sudoeste 2 943.1 0.5 100
2019-11-21 10:00:00 9.9 3 Sudoeste 8 Sudoeste 3.2 942.9 0.4 100
2019-11-21 09:00:00 9.8 3 Sudoeste 8 Oeste 1 942.7 0 100
2019-11-21 08:00:00 -- -- -- -- -- -- -- -- --
2019-11-21 07:00:00 -- -- -- -- -- -- -- -- --
2019-11-21 06:00:00 -- -- -- -- -- -- -- -- --
2019-11-21 05:00:00 -- -- -- -- -- -- -- -- --
2019-11-21 04:00:00 -- -- -- -- -- -- -- -- --
2019-11-21 03:00:00 -- -- -- -- -- -- -- -- --
2019-11-21 02:00:00 -- -- -- -- -- -- -- -- --
2019-11-21 01:00:00 -- -- -- -- -- -- -- -- --
2019-11-21 00:00:00 -- -- -- -- -- -- -- -- --
2019-11-20 23:00:00 -- -- -- -- -- -- -- -- --
2019-11-20 22:00:00 -- -- -- -- -- -- -- -- --
2019-11-20 21:00:00 8.3 2 Norte 5 Sudoeste 0 943.5 1 100
2019-11-20 20:00:00 8.8 0 Calma 11 Sudoeste 0.2 943.1 0.6 100
2019-11-20 19:00:00 8.8 3 Sudeste 5 Este 1.8 942.6 0.2 100
2019-11-20 18:00:00 9.1 2 Sur 7 Sudeste 0 942.5 0.1 100
2019-11-20 17:00:00 9.6 3 Sur 10 Sudoeste 0 942.5 -0.6 100
2019-11-20 16:00:00 9.4 6 Sudoeste 9 Oeste 0 942.4 -1.5 100
2019-11-20 15:00:00 8.9 3 Oeste 9 Sudoeste 0 942.4 -2 100
2019-11-20 14:00:00 8.3 2 Sudoeste 15 Oeste 0.6 943.1 -1.7 100
2019-11-20 13:00:00 7.7 4 Noroeste 11 Este 3.2 943.9 -0.9 100
2019-11-20 12:00:00 7 4 Sudeste 9 Nordeste 1.8 944.4 -0.6 100
2019-11-20 11:00:00 6.6 5 Este 15 Sudeste 1.8 944.8 0 100
2019-11-20 10:00:00 6.6 7 Sudeste 16 Sudeste 1.8 944.8 -0.1 100
2019-11-20 09:00:00 6.4 5 Nordeste 10 Este 0.2 945 0 100
2019-11-20 08:00:00 6.2 6 Sudeste 19 Sur 0.4 944.8 -0.5 100
2019-11-20 07:00:00 6.3 5 Este 12 Sudeste 0.8 944.9 -1.1 100
2019-11-20 06:00:00 7.1 3 Sudeste 12 Sur 0 945 -1.5 77
2019-11-20 05:00:00 7 5 Este 9 Este 0 945.3 -1.8 78
2019-11-20 04:00:00 6.7 4 Nordeste 9 Este 0 946 -1.8 82
2019-11-20 03:00:00 6 6 Este 9 Nordeste 0 946.5 -1.5 86
2019-11-20 02:00:00 4.8 0 Calma 10 Nordeste 0 947.1 -1.1 85
2019-11-20 01:00:00 5.3 0 Calma 6 Nordeste 0 947.8 -0.7 79
2019-11-20 00:00:00 4.8 2 Oeste 6 Nordeste 0 948 -0.7 80
2019-11-19 23:00:00 5.2 4 Noroeste 11 Nordeste 0 948.2 -0.6 87
2019-11-19 22:00:00 6 7 Nordeste 12 Nordeste 0 948.5 -0.4 82
2019-11-19 21:00:00 6 4 Norte 10 Nordeste 0 948.7 0.1 82
2019-11-19 20:00:00 7.4 0 Calma 9 Nordeste 0 948.8 0.1 80
2019-11-19 19:00:00 8.4 8 Este 11 Este 0 948.9 -0.1 80
2019-11-19 18:00:00 10.4 4 Oeste 9 Sudoeste 0 948.6 -0.8 66
2019-11-19 17:00:00 11 7 Sudoeste -- -- 0 948.7 -1.2 63
2019-11-19 16:00:00 11.5 5 Sudoeste 12 Sudoeste 0 949 -1.7 62
2019-11-19 15:00:00 11.4 5 Sudoeste 12 Sudoeste 0 949.4 -2 61
2019-11-19 14:00:00 11.1 6 Sudoeste 17 Sudoeste 0 949.9 -1.8 63
2019-11-19 13:00:00 11.9 8 Oeste 15 Sudoeste 0 950.7 -1.1 60
2019-11-19 12:00:00 11.6 8 Sudoeste 14 Sudoeste 0 951.4 0 60
2019-11-19 11:00:00 9.6 3 Sur 7 Sudeste 0 951.7 0.5 71
2019-11-19 10:00:00 7 2 Noroeste 6 Nordeste 0 951.8 1.1 90
2019-11-19 09:00:00 6.1 3 Noroeste 9 Nordeste 0 951.4 0.8 84
2019-11-19 08:00:00 5 3 Norte 6 Nordeste 0 951.2 0.6 89
2019-11-19 07:00:00 5.2 4 Noroeste 9 Nordeste 0 950.7 -0.1 85
2019-11-19 06:00:00 5.7 4 Nordeste 10 Noroeste 0 950.6 -0.1 83
2019-11-19 05:00:00 5.6 4 Nordeste 14 Norte 0 950.6 -0.4 86
2019-11-19 04:00:00 5.5 5 Norte 9 Norte 0 950.8 -0.7 87
2019-11-19 03:00:00 5.3 5 Norte 12 Nordeste 0 950.7 -1 88
2019-11-19 02:00:00 5.9 6 Nordeste 12 Nordeste 0 951 -1 86
2019-11-19 01:00:00 5.6 3 Oeste 12 Norte 0 951.5 -0.5 89
2019-11-19 00:00:00 5.8 6 Norte 13 Norte 0 951.7 0.3 89
2019-11-18 23:00:00 5.5 5 Nordeste 12 Nordeste 0 952 1 91
2019-11-18 22:00:00 5.9 7 Nordeste 12 Nordeste 0 952 1.6 87
2019-11-18 21:00:00 7.2 4 Nordeste 13 Nordeste 0 951.4 1.5 77
2019-11-18 20:00:00 7.1 2 Norte 13 Nordeste 0 951 1.6 80
2019-11-18 19:00:00 8.4 4 Sudoeste 17 Noroeste 0 950.4 1.1 74
2019-11-18 18:00:00 10.2 5 Norte 19 Noroeste 0 949.9 0.7 66
2019-11-18 17:00:00 11.2 11 Norte 29 Norte 0 949.4 0.1 64
2019-11-18 16:00:00 12.1 10 Norte 27 Norte 0 949.3 -0.3 62
2019-11-18 15:00:00 11.6 15 Norte 25 Norte 0 949.2 -0.5 64
2019-11-18 14:00:00 11.3 9 Norte 21 Este 0 949.3 -0.3 66
2019-11-18 13:00:00 9.9 12 Norte 28 Nordeste 0 949.6 0.4 72
2019-11-18 12:00:00 8.7 12 Norte 41 Norte 0 949.7 1.5 77
2019-11-18 11:00:00 7.4 18 Norte 37 Norte 0 949.6 2 83
2019-11-18 10:00:00 6 19 Norte 37 Norte 0 949.2 2.3 91
2019-11-18 09:00:00 5.2 19 Norte 35 Nordeste 0 948.2 1.9 96
2019-11-18 08:00:00 5.2 15 Norte 37 Norte 0 947.6 1.4 99
2019-11-18 07:00:00 5.2 16 Norte 49 Norte 0 946.9 1 96
2019-11-18 06:00:00 5.5 31 Norte 54 Norte 0 946.3 0.5 92
2019-11-18 05:00:00 5.6 29 Norte 51 Norte 0 946.2 0.6 95
2019-11-18 04:00:00 5.9 28 Norte 55 Norte 0 945.9 -0.4 94
2019-11-18 03:00:00 6.4 32 Norte 67 Norte 0 945.8 -0.4 89
2019-11-18 02:00:00 8 27 Noroeste 62 Norte 0 945.6 -1.6 76
2019-11-18 01:00:00 9.2 30 Norte 58 Norte 2.8 946.3 -1.1 98
2019-11-18 00:00:00 10.8 8 Noroeste 26 Oeste 2.4 946.2 -1.7 100
2019-11-17 23:00:00 11.1 16 Noroeste 33 Noroeste 2.4 947.2 -0.9 100
2019-11-17 22:00:00 11.3 11 Oeste 29 Noroeste 0.8 947.4 -1.1 100
2019-11-17 21:00:00 11.2 12 Noroeste 31 Noroeste 0.8 947.9 -1 100
2019-11-17 20:00:00 11.6 11 Oeste 27 Noroeste 0 948.1 -1 100
2019-11-17 19:00:00 11.6 12 Noroeste 27 Oeste 0.2 948.5 -0.9 100
2019-11-17 18:00:00 11.6 8 Oeste 18 Oeste 0 948.9 -0.9 100
2019-11-17 17:00:00 11.4 7 Sudoeste 14 Oeste 0.4 949.1 -1.4 100
2019-11-17 16:00:00 11.3 8 Sudoeste 16 Sudoeste 0.4 949.4 -2 100
2019-11-17 15:00:00 11.8 9 Oeste 19 Oeste 0.2 949.8 -2.4 100
2019-11-17 14:00:00 10 8 Sudoeste 19 Oeste 0 950.5 -2.1 100
2019-11-17 13:00:00 8.5 3 Sudoeste 7 Sudoeste 0 951.4 -0.9 100
2019-11-17 12:00:00 8.2 3 Sur 10 Noroeste 0 952.2 0.1 100
2019-11-17 11:00:00 7.4 4 Oeste 9 Noroeste 0.4 952.6 1.3 100
2019-11-17 10:00:00 6.8 4 Oeste 12 Noroeste 0.2 952.3 1.3 100
2019-11-17 09:00:00 6.5 6 Noroeste 13 Noroeste 0.4 952.1 1 100
2019-11-17 08:00:00 6.9 7 Oeste 16 Oeste 0.4 951.3 0.2 100
2019-11-17 07:00:00 7.1 8 Oeste 22 Noroeste 0 951 -0.5 100
2019-11-17 06:00:00 6.4 10 Noroeste 26 Noroeste 0.2 951.1 -0.6 100
2019-11-17 05:00:00 5.9 6 Oeste 23 Oeste 0 951.1 -0.8 85
2019-11-17 04:00:00 5.1 2 Sudoeste 7 Sudeste 0 951.5 -0.5 82
2019-11-17 03:00:00 4.8 3 Sur 8 Sudoeste 0 951.7 -0.4 83
2019-11-17 02:00:00 5.2 5 Oeste 17 Oeste 0 951.9 -0.2 82
2019-11-17 01:00:00 6.6 11 Noroeste 33 Norte 0 952 0.2 75
2019-11-17 00:00:00 7.3 18 Norte 36 Norte 0 952.1 0.2 68
2019-11-16 23:00:00 7.4 11 Norte 41 Norte 0 952.1 0.3 64
2019-11-16 22:00:00 8.3 21 Norte 39 Norte 0 951.8 0.4 57
2019-11-16 21:00:00 6.7 7 Noroeste 21 Nordeste 0 951.9 0.8 63
2019-11-16 20:00:00 5 5 Noroeste 10 Nordeste 0 951.8 1.1 68
2019-11-16 19:00:00 6.5 2 Norte 9 Norte 0 951.4 1.1 59
2019-11-16 18:00:00 9 7 Norte 30 Norte 0 951.1 1 47
2019-11-16 17:00:00 10.6 13 Noroeste 23 Noroeste 0 950.7 0.6 44
2019-11-16 16:00:00 10.9 13 Norte 32 Noroeste 0 950.3 0.3 45
2019-11-16 15:00:00 10.5 17 Norte 34 Noroeste 0 950.1 -0.2 50
2019-11-16 14:00:00 10.5 12 Noroeste 27 Norte 0 950.1 0.4 53
2019-11-16 13:00:00 10.6 8 Oeste 33 Norte 0 950 1.1 48
2019-11-16 12:00:00 8.3 17 Norte 36 Nordeste 0 950.3 2.5 56
2019-11-16 11:00:00 6.8 22 Norte 37 Norte 0 949.7 2.8 63
2019-11-16 10:00:00 4.6 22 Nordeste 41 Nordeste 0 948.9 2.6 75
2019-11-16 09:00:00 2.2 23 Nordeste 43 Nordeste 0 947.8 2.3 90
2019-11-16 08:00:00 1.8 24 Norte 37 Norte 0 946.9 1.8 94
2019-11-16 07:00:00 1.9 23 Norte 34 Norte 0 946.3 1.4 95
2019-11-16 06:00:00 2 18 Nordeste 30 Norte 0 945.5 0.9 95
2019-11-16 05:00:00 2.2 21 Norte 33 Norte 0 945.1 0.7 95
2019-11-16 04:00:00 2.5 17 Norte 28 Norte 0 944.9 0.6 93
2019-11-16 03:00:00 2.9 20 Norte 30 Nordeste 0 944.6 0.9 86
2019-11-16 02:00:00 3 11 Norte 28 Norte 0 944.4 0.4 83
2019-11-16 01:00:00 3.6 12 Norte 35 Norte 0 944.3 0.7 77
2019-11-16 00:00:00 4.3 22 Norte 43 Norte 0 943.7 0.4 72
2019-11-15 23:00:00 4.4 17 Norte 26 Norte 0 944 1.1 71
2019-11-15 22:00:00 5.1 12 Noroeste 36 Norte 0 943.6 1 67
2019-11-15 21:00:00 5.6 9 Norte 26 Norte 0 943.3 1.2 63
2019-11-15 20:00:00 5.9 4 Norte 19 Noroeste 0 942.9 1.1 60
2019-11-15 19:00:00 6.7 7 Noroeste 30 Noroeste 0 942.6 1.2 58
2019-11-15 18:00:00 7.8 9 Noroeste 31 Norte 0 942.1 0.6 57
2019-11-15 17:00:00 8.9 17 Norte 36 Norte 0 941.8 0 51
2019-11-15 16:00:00 8.9 21 Norte 42 Noroeste 0 941.4 -1 53
2019-11-15 15:00:00 9.1 18 Norte 39 Norte 0 941.5 -1.4 55
2019-11-15 14:00:00 9 18 Norte 41 Norte 0 941.8 -1.1 57
2019-11-15 13:00:00 8.2 14 Noroeste 42 Norte 0 942.4 -0.6 61
2019-11-15 12:00:00 6.6 26 Norte 50 Noroeste 0 942.9 0.6 66
2019-11-15 11:00:00 5.9 31 Norte 51 Norte 0 942.9 0.8 69
2019-11-15 10:00:00 5.5 23 Norte 50 Norte 0 943 0.9 75
2019-11-15 09:00:00 4.6 22 Norte 43 Norte 0 942.3 0.3 81
2019-11-15 08:00:00 4.6 14 Norte 46 Norte 0 942.1 0 83
2019-11-15 07:00:00 4.7 17 Norte 43 Noroeste 0 942.1 -0.2 77
2019-11-15 06:00:00 4.9 20 Noroeste 44 Noroeste 0 942 -0.3 80
2019-11-15 05:00:00 5.2 21 Norte 47 Noroeste 0 942.1 -0.6 78
2019-11-15 04:00:00 5.2 19 Noroeste 49 Norte 0 942.3 -0.7 83
2019-11-15 03:00:00 5.4 21 Norte 54 Norte 0 942.3 -1.2 80
2019-11-15 02:00:00 5.6 26 Norte 49 Norte 0 942.7 -1.2 77
2019-11-15 01:00:00 5.6 21 Noroeste 43 Norte 0 943 -0.8 80
2019-11-15 00:00:00 5.9 14 Norte 44 Noroeste 0 943.5 -0.5 79